TimePST,TemperatureF,Dew PointF,Humidity,Sea Level PressureIn,VisibilityMPH,Wind Direction,Wind SpeedMPH,Gust SpeedMPH,PrecipitationIn,Events,Conditions,WindDirDegrees,DateUTC
12:46 AM,41.0,39.2,93,29.79,10.0,WSW,3.5,-,N/A,,Overcast,250,2012-12-12 08:46:00
12:53 AM,42.1,39.0,89,29.80,10.0,Calm,Calm,-,N/A,,Overcast,0,2012-12-12 08:53:00
1:10 AM,41.0,39.2,93,29.79,10.0,Calm,Calm,-,N/A,,Overcast,0,2012-12-12 09:10:00
1:44 AM,39.2,37.4,93,29.80,10.0,Calm,Calm,-,N/A,,Mostly Cloudy,0,2012-12-12 09:44:00
1:53 AM,39.9,37.9,93,29.81,10.0,Calm,Calm,-,N/A,,Mostly Cloudy,0,2012-12-12 09:53:00
2:12 AM,39.2,37.4,93,29.81,10.0,Calm,Calm,-,N/A,,Scattered Clouds,0,2012-12-12 10:12:00
2:53 AM,39.9,37.9,93,29.83,10.0,Calm,Calm,-,N/A,,Overcast,0,2012-12-12 10:53:00
3:53 AM,39.9,39.0,97,29.83,10.0,Calm,Calm,-,0.00,,Overcast,0,2012-12-12 11:53:00
4:53 AM,39.9,37.9,93,29.84,10.0,Calm,Calm,-,N/A,,Overcast,0,2012-12-12 12:53:00
5:53 AM,39.9,37.9,93,29.86,10.0,Calm,Calm,-,N/A,,Overcast,0,2012-12-12 13:53:00
6:53 AM,39.9,37.9,93,29.88,10.0,SE,3.5,-,N/A,,Overcast,130,2012-12-12 14:53:00
7:53 AM,37.9,37.0,97,29.89,5.0,Calm,Calm,-,N/A,,Mostly Cloudy,0,2012-12-12 15:53:00
8:53 AM,39.9,37.9,93,29.91,9.0,SE,6.9,-,N/A,,Overcast,140,2012-12-12 16:53:00
9:53 AM,41.0,37.9,89,29.93,10.0,SSE,4.6,-,N/A,,Overcast,150,2012-12-12 17:53:00
10:53 AM,44.1,37.9,79,29.93,10.0,SE,6.9,-,N/A,,Scattered Clouds,140,2012-12-12 18:53:00
11:53 AM,46.0,37.0,71,29.92,10.0,SSE,6.9,-,N/A,,Mostly Cloudy,150,2012-12-12 19:53:00
12:53 PM,46.0,36.0,68,29.91,10.0,South,3.5,-,N/A,,Partly Cloudy,180,2012-12-12 20:53:00
1:34 PM,48.2,35.6,62,29.89,10.0,Variable,3.5,-,0.00,,Overcast,0,2012-12-12 21:34:00
1:41 PM,48.2,35.6,62,29.89,10.0,SSW,5.8,-,0.00,,Overcast,210,2012-12-12 21:41:00
1:53 PM,48.0,36.0,63,29.90,10.0,South,6.9,-,0.00,Rain,Light Rain,180,2012-12-12 21:53:00
2:53 PM,46.9,36.0,66,29.90,10.0,Calm,Calm,-,0.00,,Partly Cloudy,0,2012-12-12 22:53:00
3:53 PM,46.9,36.0,66,29.91,10.0,Calm,Calm,-,N/A,,Overcast,0,2012-12-12 23:53:00
4:53 PM,45.0,37.9,76,29.92,10.0,Calm,Calm,-,0.00,,Overcast,0,2012-12-13 00:53:00
5:53 PM,44.1,37.9,79,29.93,10.0,Calm,Calm,-,N/A,,Overcast,0,2012-12-13 01:53:00
6:53 PM,43.0,37.9,82,29.94,10.0,Calm,Calm,-,N/A,,Overcast,0,2012-12-13 02:53:00
7:53 PM,43.0,37.9,82,29.96,10.0,Calm,Calm,-,N/A,,Overcast,0,2012-12-13 03:53:00
8:39 PM,42.8,37.4,81,29.96,10.0,Calm,Calm,-,N/A,,Overcast,0,2012-12-13 04:39:00
8:53 PM,43.0,37.9,82,29.97,10.0,Calm,Calm,-,N/A,,Overcast,0,2012-12-13 04:53:00
9:53 PM,42.1,37.9,85,29.99,10.0,Calm,Calm,-,N/A,,Overcast,0,2012-12-13 05:53:00
10:22 PM,42.8,37.4,81,29.99,10.0,Calm,Calm,-,N/A,,Overcast,0,2012-12-13 06:22:00
10:53 PM,41.0,37.9,89,30.00,10.0,Calm,Calm,-,N/A,,Overcast,0,2012-12-13 06:53:00
11:05 PM,41.0,39.2,93,29.99,10.0,Calm,Calm,-,N/A,,Overcast,0,2012-12-13 07:05:00
11:49 PM,41.0,39.2,93,30.00,10.0,Calm,Calm,-,N/A,,Overcast,0,2012-12-13 07:49:00
11:53 PM,41.0,39.0,93,30.01,10.0,Calm,Calm,-,N/A,,Overcast,0,2012-12-13 07:53:00